createdAt,value
2023-04-10T00:01:38.628Z,397.85
2023-04-10T00:04:07.371Z,385.42
2023-04-10T00:06:35.999Z,357.75
2023-04-10T00:09:04.481Z,381.88
2023-04-10T00:11:32.858Z,396.45
2023-04-10T00:14:01.287Z,429.77
2023-04-10T00:16:31.342Z,408.15
2023-04-10T00:18:59.619Z,436.65
2023-04-10T00:21:28.339Z,443.60
2023-04-10T00:23:56.607Z,438.58
2023-04-10T00:26:26.268Z,410.27
2023-04-10T00:28:54.548Z,407.35
2023-04-10T00:31:23.301Z,428.90
2023-04-10T00:33:53.231Z,437.95
2023-04-10T00:36:21.810Z,451.23
2023-04-10T00:38:50.318Z,459.00
2023-04-10T00:41:18.659Z,412.35
2023-04-10T00:43:47.240Z,400.90
2023-04-10T00:46:15.785Z,392.90
2023-04-10T00:48:44.204Z,423.95
2023-04-10T00:51:13.959Z,430.85
2023-04-10T00:53:42.277Z,415.52
2023-04-10T00:56:11.037Z,401.52
2023-04-10T00:58:39.368Z,388.85
2023-04-10T01:01:08.641Z,428.58
2023-04-10T01:03:37.750Z,458.67
2023-04-10T01:06:09.763Z,442.80
2023-04-10T01:08:46.658Z,442.10
2023-04-10T01:11:19.987Z,402.95
2023-04-10T01:13:51.777Z,435.83
2023-04-10T01:16:24.175Z,396.42
2023-04-10T01:18:56.986Z,392.20
2023-04-10T01:21:25.997Z,442.00
2023-04-10T01:24:16.505Z,416.45
2023-04-10T01:26:59.765Z,465.40
2023-04-10T01:29:31.464Z,472.00
2023-04-10T01:32:03.274Z,457.58
2023-04-10T01:34:37.315Z,448.83
2023-04-10T01:37:08.795Z,441.45
2023-04-10T01:39:39.043Z,466.30
2023-04-10T01:42:08.468Z,472.08
2023-04-10T01:44:42.730Z,418.77
2023-04-10T01:47:11.205Z,413.15
2023-04-10T01:49:44.331Z,407.63
2023-04-10T01:52:13.053Z,399.52
2023-04-10T01:54:41.525Z,453.25
2023-04-10T01:57:10.734Z,417.38
2023-04-10T01:59:41.037Z,420.63
2023-04-10T02:02:11.771Z,421.30
2023-04-10T02:04:40.567Z,451.10
2023-04-10T02:07:13.247Z,437.48
2023-04-10T02:09:59.535Z,420.17
2023-04-10T02:12:31.014Z,447.25
2023-04-10T02:15:02.716Z,409.38
2023-04-10T02:17:32.671Z,417.55
2023-04-10T02:20:01.407Z,418.27
2023-04-10T02:22:29.797Z,417.42
2023-04-10T02:24:58.801Z,404.40
2023-04-10T02:27:30.993Z,387.90
2023-04-10T02:30:00.805Z,455.25
2023-04-10T02:32:29.258Z,418.13
2023-04-10T02:34:57.854Z,457.67
2023-04-10T02:37:26.643Z,401.17
2023-04-10T02:39:55.619Z,403.05
2023-04-10T02:42:24.186Z,456.20
2023-04-10T02:44:52.477Z,463.50
2023-04-10T02:47:22.125Z,441.67
2023-04-10T02:49:50.600Z,454.63
2023-04-10T02:52:19.001Z,454.65
2023-04-10T02:54:47.465Z,457.83
2023-04-10T02:57:15.796Z,429.95
2023-04-10T02:59:44.529Z,404.10
2023-04-10T03:02:12.973Z,450.52
2023-04-10T03:04:42.873Z,442.73
2023-04-10T03:07:11.347Z,440.88
2023-04-10T03:09:39.660Z,461.92
2023-04-10T03:12:08.026Z,464.98
2023-04-10T03:14:36.506Z,418.15
2023-04-10T03:17:04.844Z,423.88
2023-04-10T03:19:33.174Z,420.55
2023-04-10T03:22:03.597Z,431.15
2023-04-10T03:24:31.882Z,433.25
2023-04-10T03:27:00.178Z,449.50
2023-04-10T03:29:28.484Z,446.08
2023-04-10T03:31:57.472Z,439.33
2023-04-10T03:34:26.006Z,460.90
2023-04-10T03:36:54.281Z,455.85
2023-04-10T03:39:24.655Z,447.10
2023-04-10T03:41:52.926Z,440.85
2023-04-10T03:44:22.519Z,425.02
2023-04-10T03:46:50.851Z,458.27
2023-04-10T03:49:19.414Z,443.02
2023-04-10T03:51:47.725Z,429.85
2023-04-10T03:54:16.043Z,430.77
2023-04-10T03:56:45.691Z,404.20
2023-04-10T03:59:13.992Z,414.00
2023-04-10T04:01:42.396Z,444.63
2023-04-10T04:04:10.957Z,427.95
2023-04-10T04:06:39.298Z,465.35
2023-04-10T04:09:08.064Z,413.13
2023-04-10T04:11:36.394Z,425.95
2023-04-10T04:14:06.140Z,425.10
2023-04-10T04:16:34.504Z,455.73
2023-04-10T04:19:02.856Z,448.27
2023-04-10T04:21:31.472Z,476.00
2023-04-10T04:23:59.883Z,451.33
2023-04-10T04:26:28.258Z,449.52
2023-04-10T04:28:59.553Z,408.75
2023-04-10T04:31:32.445Z,426.38
2023-04-10T04:34:00.983Z,434.02
2023-04-10T04:36:29.414Z,418.05
2023-04-10T04:38:57.715Z,407.40
2023-04-10T04:41:26.070Z,427.55
2023-04-10T04:43:56.433Z,397.00
2023-04-10T04:46:24.981Z,423.80
2023-04-10T04:48:54.895Z,424.52
2023-04-10T04:51:23.196Z,470.00
2023-04-10T04:53:51.856Z,467.55
2023-04-10T04:56:20.395Z,440.33
2023-04-10T04:58:48.713Z,460.77
2023-04-10T05:01:17.111Z,576.05
2023-04-10T05:03:45.901Z,468.75
2023-04-10T05:06:15.804Z,455.50
2023-04-10T05:08:44.147Z,439.67
2023-04-10T05:11:12.483Z,450.27
2023-04-10T05:13:40.887Z,418.15
2023-04-10T05:16:09.808Z,398.00
2023-04-10T05:18:38.316Z,370.17
2023-04-10T05:21:07.139Z,382.83
2023-04-10T05:23:37.011Z,436.75
2023-04-10T05:26:06.100Z,299.98
2023-04-10T05:28:34.406Z,259.33
2023-04-10T05:31:02.931Z,198.45
2023-04-10T05:33:31.261Z,229.13
2023-04-10T05:35:59.634Z,243.52
2023-04-10T05:38:28.012Z,258.83
2023-04-10T05:40:57.745Z,288.75
2023-04-10T05:43:26.053Z,262.25
2023-04-10T05:45:54.488Z,290.00
2023-04-10T05:48:26.030Z,304.73
2023-04-10T05:50:54.354Z,291.35
2023-04-10T05:53:25.392Z,309.58
2023-04-10T05:55:54.568Z,307.23
2023-04-10T05:58:24.251Z,281.15
2023-04-10T06:00:52.802Z,293.80
2023-04-10T06:03:21.488Z,285.55
2023-04-10T06:05:49.996Z,280.48
2023-04-10T06:08:19.392Z,302.88
2023-04-10T06:10:49.011Z,275.92
2023-04-10T06:13:17.310Z,304.20
2023-04-10T06:15:47.089Z,299.25
2023-04-10T06:18:15.798Z,271.27
2023-04-10T06:20:44.149Z,294.60
2023-04-10T06:23:14.205Z,279.00
2023-04-10T06:25:42.556Z,266.23
2023-04-10T06:28:10.865Z,285.65
2023-04-10T06:30:39.258Z,280.60
2023-04-10T06:33:09.109Z,286.45
2023-04-10T06:35:38.585Z,300.80
2023-04-10T06:38:06.964Z,318.88
2023-04-10T06:40:35.528Z,313.15
2023-04-10T06:43:03.859Z,311.80
2023-04-10T06:45:32.446Z,277.08
2023-04-10T06:48:00.880Z,281.00
2023-04-10T06:50:33.265Z,442.80
2023-04-10T06:53:01.785Z,273.00
2023-04-10T06:55:30.641Z,278.98
2023-04-10T06:57:58.977Z,303.90
2023-04-10T07:00:27.445Z,273.55
2023-04-10T07:02:55.906Z,480.58
2023-04-10T07:05:24.468Z,355.90
2023-04-10T07:07:54.234Z,269.95
2023-04-10T07:10:22.703Z,263.08
2023-04-10T07:12:51.176Z,269.77
2023-04-10T07:15:19.628Z,287.00
2023-04-10T07:17:49.523Z,259.88
2023-04-10T07:20:18.138Z,266.65
2023-04-10T07:22:46.567Z,400.85
2023-04-10T07:25:16.652Z,285.13
2023-04-10T07:27:45.025Z,266.52
2023-04-10T07:30:13.955Z,252.50
2023-04-10T07:32:42.692Z,456.52
2023-04-10T07:35:11.554Z,268.60
2023-04-10T07:37:40.763Z,243.18
2023-04-10T07:40:10.526Z,237.65
2023-04-10T07:42:40.289Z,269.50
2023-04-10T07:45:09.981Z,277.42
2023-04-10T07:47:38.628Z,232.68
2023-04-10T07:50:08.722Z,288.00
2023-04-10T07:52:37.168Z,247.43
2023-04-10T07:55:06.036Z,219.07
2023-04-10T07:57:34.381Z,239.50
2023-04-10T08:00:04.489Z,269.33
2023-04-10T08:02:33.340Z,211.45
2023-04-10T08:05:02.128Z,297.00
2023-04-10T08:07:31.310Z,206.07
2023-04-10T08:09:59.757Z,236.40
2023-04-10T08:12:28.155Z,190.55
2023-04-10T08:14:56.510Z,227.52
2023-04-10T08:17:26.231Z,245.73
2023-04-10T08:19:54.623Z,274.77
2023-04-10T08:22:23.027Z,170.68
2023-04-10T08:24:51.494Z,227.35
2023-04-10T08:27:19.914Z,179.50
2023-04-10T08:29:48.428Z,179.07
2023-04-10T08:32:16.802Z,171.35
2023-04-10T08:34:46.583Z,190.95
2023-04-10T08:37:15.667Z,196.18
2023-04-10T08:39:44.017Z,181.23
2023-04-10T08:42:12.704Z,232.60
2023-04-10T08:44:41.932Z,162.13
2023-04-10T08:47:10.751Z,348.90
2023-04-10T08:49:46.200Z,172.13
2023-04-10T08:52:17.360Z,158.10
2023-04-10T08:54:48.519Z,150.15
2023-04-10T08:57:20.566Z,148.00
2023-04-10T08:59:49.019Z,165.63
2023-04-10T09:02:17.725Z,153.98
2023-04-10T09:04:50.080Z,199.15
2023-04-10T09:07:20.464Z,136.75
2023-04-10T09:09:48.819Z,147.68
2023-04-10T09:12:18.280Z,176.30
2023-04-10T09:14:48.534Z,140.57
2023-04-10T09:17:19.043Z,121.90
2023-04-10T09:19:48.414Z,205.30
2023-04-10T09:22:17.458Z,128.23
2023-04-10T09:24:48.032Z,131.07
2023-04-10T09:27:31.290Z,141.77
2023-04-10T09:30:01.002Z,158.20
2023-04-10T09:32:41.051Z,148.80
2023-04-10T09:35:11.654Z,125.75
2023-04-10T09:37:42.502Z,143.38
2023-04-10T09:40:24.351Z,123.13
2023-04-10T09:42:53.209Z,131.43
2023-04-10T09:45:22.858Z,173.43
2023-04-10T09:48:04.508Z,196.38
2023-04-10T09:50:39.646Z,244.77
2023-04-10T09:53:09.082Z,127.55
2023-04-10T09:55:38.991Z,147.80
2023-04-10T09:58:08.202Z,131.07
2023-04-10T10:00:41.901Z,130.00
2023-04-10T10:03:12.274Z,189.30
2023-04-10T10:05:42.670Z,188.98
2023-04-10T10:08:12.832Z,136.18
2023-04-10T10:10:49.156Z,212.38
2023-04-10T10:13:19.507Z,137.32
2023-04-10T10:15:52.061Z,139.95
2023-04-10T10:18:24.081Z,172.35
2023-04-10T10:20:52.596Z,159.00
2023-04-10T10:23:21.647Z,145.43
2023-04-10T10:25:52.412Z,245.65
2023-04-10T10:28:21.651Z,210.10
2023-04-10T10:30:51.477Z,180.93
2023-04-10T10:33:20.446Z,186.65
2023-04-10T10:35:50.186Z,165.88
2023-04-10T10:38:19.760Z,191.88
2023-04-10T10:40:56.059Z,364.55
2023-04-10T10:43:36.663Z,219.60
2023-04-10T10:46:08.155Z,230.95
2023-04-10T10:48:36.557Z,218.02
2023-04-10T10:51:05.172Z,210.30
2023-04-10T10:53:40.864Z,239.75
2023-04-10T10:56:36.012Z,242.05
2023-04-10T10:59:04.486Z,357.40
2023-04-10T11:01:32.931Z,298.27
2023-04-10T11:04:02.305Z,323.23
2023-04-10T11:06:52.171Z,346.10
2023-04-10T11:09:46.906Z,318.88
2023-04-10T11:12:16.985Z,352.60
2023-04-10T11:14:46.441Z,290.77
2023-04-10T11:17:14.844Z,300.30
2023-04-10T11:20:00.363Z,334.15
2023-04-10T11:22:29.022Z,342.10
2023-04-10T11:24:59.364Z,474.35
2023-04-10T11:27:48.595Z,371.77
2023-04-10T11:30:34.175Z,359.05
2023-04-10T11:33:04.110Z,405.17
2023-04-10T11:35:33.431Z,317.42
2023-04-10T11:38:16.155Z,328.52
2023-04-10T11:41:03.893Z,354.85
2023-04-10T11:43:35.091Z,334.42
2023-04-10T11:46:05.291Z,328.63
2023-04-10T11:48:34.161Z,359.58
2023-04-10T11:51:09.565Z,357.75
2023-04-10T11:53:38.346Z,343.67
2023-04-10T11:56:08.483Z,335.80
2023-04-10T11:58:38.171Z,340.80
2023-04-10T12:01:07.462Z,366.15
2023-04-10T12:03:37.737Z,429.40
2023-04-10T12:06:09.635Z,340.58
2023-04-10T12:08:39.046Z,336.90
2023-04-10T12:11:08.309Z,347.17
2023-04-10T12:13:38.355Z,328.98
2023-04-10T12:16:09.449Z,437.52
2023-04-10T12:18:38.240Z,354.10
2023-04-10T12:21:08.581Z,338.80
2023-04-10T12:23:39.615Z,360.88
2023-04-10T12:26:19.445Z,453.20
2023-04-10T12:28:55.505Z,366.15
2023-04-10T12:31:30.856Z,350.73
2023-04-10T12:33:59.423Z,342.92
2023-04-10T12:36:30.008Z,368.90
2023-04-10T12:38:59.556Z,363.13
2023-04-10T12:41:30.805Z,397.42
2023-04-10T12:44:10.830Z,371.75
2023-04-10T12:46:39.779Z,411.75
2023-04-10T12:49:12.824Z,423.38
2023-04-10T12:51:46.459Z,388.83
2023-04-10T12:54:29.277Z,374.05
2023-04-10T12:56:57.788Z,418.90
2023-04-10T12:59:27.857Z,415.55
2023-04-10T13:01:56.501Z,385.20
2023-04-10T13:04:25.094Z,500.50
2023-04-10T13:06:53.668Z,428.98
2023-04-10T13:09:22.332Z,426.75
2023-04-10T13:11:51.776Z,464.70
2023-04-10T13:14:20.641Z,446.63
2023-04-10T13:16:50.454Z,446.33
2023-04-10T13:19:18.767Z,473.08
2023-04-10T13:21:47.100Z,470.92
2023-04-10T13:24:16.796Z,520.97
2023-04-10T13:26:45.590Z,449.33
2023-04-10T13:29:13.959Z,447.95
2023-04-10T13:31:42.309Z,449.08
2023-04-10T13:34:12.022Z,436.38
2023-04-10T13:36:40.464Z,409.45
2023-04-10T13:39:08.919Z,454.60
2023-04-10T13:41:37.265Z,521.45
2023-04-10T13:44:05.861Z,443.45
2023-04-10T13:46:34.436Z,443.00
2023-04-10T13:49:02.902Z,413.58
2023-04-10T13:51:32.588Z,455.45
2023-04-10T13:54:02.835Z,519.85
2023-04-10T13:56:31.212Z,451.77
2023-04-10T13:58:59.538Z,442.60
2023-04-10T14:01:27.928Z,440.70
2023-04-10T14:03:56.602Z,452.23
2023-04-10T14:06:25.215Z,469.27
2023-04-10T14:08:55.102Z,463.92
2023-04-10T14:11:23.807Z,477.88
2023-04-10T14:13:52.219Z,463.88
2023-04-10T14:16:20.799Z,480.65
2023-04-10T14:18:49.304Z,426.88
2023-04-10T14:21:19.434Z,525.72
2023-04-10T14:23:49.127Z,470.42
2023-04-10T14:26:18.790Z,458.73
2023-04-10T14:28:47.106Z,461.63
2023-04-10T14:31:15.470Z,486.92
2023-04-10T14:33:43.821Z,467.13
2023-04-10T14:36:12.168Z,476.85
2023-04-10T14:38:40.557Z,463.52
2023-04-10T14:41:09.466Z,461.30
2023-04-10T14:43:39.258Z,431.25
2023-04-10T14:46:08.120Z,465.77
2023-04-10T14:48:36.540Z,444.88
2023-04-10T14:51:05.600Z,489.60
2023-04-10T14:53:33.914Z,460.38
2023-04-10T14:56:02.285Z,438.55
2023-04-10T14:58:30.627Z,441.05
2023-04-10T15:01:02.696Z,426.95
2023-04-10T15:03:31.222Z,506.65
2023-04-10T15:06:02.846Z,448.17
2023-04-10T15:08:31.315Z,447.63
2023-04-10T15:11:00.259Z,450.45
2023-04-10T15:13:28.856Z,459.83
2023-04-10T15:15:57.565Z,460.38
2023-04-10T15:18:27.259Z,492.45
2023-04-10T15:20:56.219Z,460.63
2023-04-10T15:23:24.617Z,464.58
2023-04-10T15:25:53.528Z,506.13
2023-04-10T15:28:21.883Z,504.88
2023-04-10T15:30:50.640Z,430.65
2023-04-10T15:33:19.060Z,456.77
2023-04-10T15:35:50.542Z,447.65
2023-04-10T15:38:18.983Z,480.13
2023-04-10T15:40:47.328Z,492.88
2023-04-10T15:43:15.680Z,422.90
2023-04-10T15:45:44.029Z,434.88
2023-04-10T15:48:12.354Z,464.10
2023-04-10T15:50:41.458Z,414.05
2023-04-10T15:53:11.245Z,447.27
2023-04-10T15:55:41.502Z,416.77
2023-04-10T15:58:09.863Z,409.02
2023-04-10T16:00:38.203Z,414.67
2023-04-10T16:03:06.899Z,403.48
2023-04-10T16:05:35.340Z,424.75
2023-04-10T16:08:04.422Z,396.25
2023-04-10T16:10:34.150Z,442.52
2023-04-10T16:13:04.360Z,398.23
2023-04-10T16:15:35.277Z,397.00
2023-04-10T16:18:04.411Z,405.10
2023-04-10T16:20:33.044Z,407.58
2023-04-10T16:23:02.703Z,395.17
2023-04-10T16:25:31.183Z,372.25
2023-04-10T16:28:02.413Z,392.38
2023-04-10T16:30:30.748Z,377.35
2023-04-10T16:32:59.175Z,367.63
2023-04-10T16:35:27.647Z,369.85
2023-04-10T16:37:56.257Z,411.10
2023-04-10T16:40:27.545Z,369.30
2023-04-10T16:42:55.864Z,394.52
2023-04-10T16:45:25.534Z,429.80
2023-04-10T16:47:53.913Z,449.90
2023-04-10T16:50:22.275Z,368.15
2023-04-10T16:52:50.643Z,363.50
2023-04-10T16:55:19.445Z,319.00
2023-04-10T16:57:48.057Z,363.92
2023-04-10T17:00:16.903Z,346.67
2023-04-10T17:02:48.665Z,430.08
2023-04-10T17:05:17.796Z,327.17
2023-04-10T17:07:46.154Z,303.10
2023-04-10T17:10:14.564Z,275.17
2023-04-10T17:12:43.500Z,286.50
2023-04-10T17:15:12.568Z,295.25
2023-04-10T17:17:41.093Z,295.17
2023-04-10T17:20:12.043Z,270.77
2023-04-10T17:22:40.696Z,393.30
2023-04-10T17:25:10.199Z,262.10
2023-04-10T17:27:40.574Z,243.25
2023-04-10T17:30:13.441Z,251.30
2023-04-10T17:32:42.104Z,250.23
2023-04-10T17:35:11.997Z,212.85
2023-04-10T17:37:40.350Z,245.55
2023-04-10T17:40:10.033Z,228.55
2023-04-10T17:42:38.360Z,216.48
2023-04-10T17:45:07.878Z,226.73
2023-04-10T17:47:36.636Z,246.52
2023-04-10T17:50:05.467Z,207.90
2023-04-10T17:52:35.483Z,263.73
2023-04-10T17:55:03.891Z,221.57
2023-04-10T17:57:32.228Z,303.13
2023-04-10T18:00:00.575Z,198.85
2023-04-10T18:02:28.983Z,222.95
2023-04-10T18:04:58.064Z,196.02
2023-04-10T18:07:26.416Z,221.00
2023-04-10T18:09:56.202Z,253.13
2023-04-10T18:12:24.524Z,212.88
2023-04-10T18:14:52.833Z,228.68
2023-04-10T18:17:21.522Z,209.60
2023-04-10T18:19:50.836Z,182.80
2023-04-10T18:22:19.497Z,214.63
2023-04-10T18:24:48.190Z,203.77
2023-04-10T18:27:17.949Z,216.38
2023-04-10T18:29:47.016Z,192.52
2023-04-10T18:32:15.458Z,270.77
2023-04-10T18:34:43.768Z,257.67
2023-04-10T18:37:12.062Z,215.48
2023-04-10T18:39:40.375Z,317.30
2023-04-10T18:42:10.662Z,194.95
2023-04-10T18:44:40.426Z,201.45
2023-04-10T18:47:10.948Z,185.80
2023-04-10T18:49:39.429Z,293.20
2023-04-10T18:52:08.039Z,186.85
2023-04-10T18:54:36.824Z,262.25
2023-04-10T18:57:05.355Z,228.30
2023-04-10T18:59:33.694Z,190.73
2023-04-10T19:02:03.721Z,224.50
2023-04-10T19:04:32.281Z,207.15
2023-04-10T19:07:00.653Z,294.13
2023-04-10T19:09:28.962Z,274.17
2023-04-10T19:11:57.944Z,278.05
2023-04-10T19:14:26.317Z,243.80
2023-04-10T19:16:54.650Z,316.85
2023-04-10T19:19:24.683Z,221.52
2023-04-10T19:21:52.974Z,474.90
2023-04-10T19:24:21.280Z,324.73
2023-04-10T19:26:49.586Z,339.38
2023-04-10T19:29:17.958Z,337.58
2023-04-10T19:31:46.617Z,344.40
2023-04-10T19:34:14.965Z,347.10
2023-04-10T19:36:44.647Z,397.38
2023-04-10T19:39:13.015Z,399.63
2023-04-10T19:41:42.597Z,405.67
2023-04-10T19:44:11.183Z,359.52
2023-04-10T19:46:39.543Z,366.70
2023-04-10T19:49:07.972Z,468.30
2023-04-10T19:51:36.745Z,450.60
2023-04-10T19:54:06.767Z,437.73
2023-04-10T19:56:37.690Z,460.02
2023-04-10T19:59:06.078Z,410.42
2023-04-10T20:01:34.817Z,472.92
2023-04-10T20:04:03.409Z,423.88
2023-04-10T20:06:32.026Z,405.55
2023-04-10T20:09:00.444Z,469.52
2023-04-10T20:11:30.817Z,411.73
2023-04-10T20:13:59.242Z,515.25
2023-04-10T20:16:27.624Z,513.90
2023-04-10T20:18:56.210Z,423.45
2023-04-10T20:21:24.965Z,485.08
2023-04-10T20:23:54.902Z,504.92
2023-04-10T20:26:25.530Z,527.10
2023-04-10T20:28:55.715Z,539.15
2023-04-10T20:31:24.321Z,506.60
2023-04-10T20:33:53.811Z,517.88
2023-04-10T20:36:22.236Z,442.70
2023-04-10T20:38:50.598Z,475.05
2023-04-10T20:41:18.947Z,487.48
2023-04-10T20:43:47.469Z,498.52
2023-04-10T20:46:17.148Z,462.15
2023-04-10T20:48:45.804Z,480.52
2023-04-10T20:51:14.328Z,426.67
2023-04-10T20:53:42.707Z,492.67
2023-04-10T20:56:11.254Z,466.52
2023-04-10T20:58:39.592Z,515.25
2023-04-10T21:01:10.088Z,505.90
2023-04-10T21:03:40.072Z,506.70
2023-04-10T21:06:09.967Z,437.05
2023-04-10T21:08:38.287Z,533.60
2023-04-10T21:11:06.834Z,511.50
2023-04-10T21:13:37.057Z,391.20
2023-04-10T21:16:07.461Z,446.92
2023-04-10T21:18:35.837Z,518.22
2023-04-10T21:21:06.235Z,397.63
2023-04-10T21:23:34.573Z,428.98
2023-04-10T21:26:03.433Z,467.05
2023-04-10T21:28:31.782Z,456.92
2023-04-10T21:31:00.145Z,469.27
2023-04-10T21:33:28.494Z,481.95
2023-04-10T21:35:57.014Z,484.58
2023-04-10T21:38:26.832Z,487.08
2023-04-10T21:40:55.814Z,420.50
2023-04-10T21:43:24.138Z,495.35
2023-04-10T21:45:52.566Z,514.75
2023-04-10T21:48:21.515Z,534.92
2023-04-10T21:50:52.874Z,447.98
2023-04-10T21:53:21.194Z,446.38
2023-04-10T21:55:51.402Z,483.48
2023-04-10T21:58:19.739Z,436.55
2023-04-10T22:00:49.815Z,510.67
2023-04-10T22:03:20.066Z,392.17
2023-04-10T22:05:50.138Z,470.50
2023-04-10T22:08:20.045Z,443.08
2023-04-10T22:10:50.446Z,464.20
2023-04-10T22:13:29.593Z,462.90
2023-04-10T22:15:59.093Z,392.45
2023-04-10T22:18:27.403Z,458.00
2023-04-10T22:20:55.798Z,500.90
2023-04-10T22:23:24.249Z,467.95
2023-04-10T22:25:53.976Z,490.02
2023-04-10T22:28:22.388Z,524.10
2023-04-10T22:30:50.772Z,475.90
2023-04-10T22:33:19.217Z,491.08
2023-04-10T22:35:47.799Z,396.85
2023-04-10T22:38:16.141Z,434.98
2023-04-10T22:40:44.466Z,521.58
2023-04-10T22:43:14.165Z,474.02
2023-04-10T22:45:44.048Z,437.52
2023-04-10T22:48:12.472Z,480.45
2023-04-10T22:50:40.968Z,507.75
2023-04-10T22:53:10.016Z,449.83
2023-04-10T22:55:39.136Z,519.67
2023-04-10T22:58:08.091Z,479.58
2023-04-10T23:00:37.876Z,443.88
2023-04-10T23:03:06.333Z,511.65
2023-04-10T23:05:34.732Z,513.90
2023-04-10T23:08:03.030Z,511.45
2023-04-10T23:10:31.328Z,467.92
2023-04-10T23:12:59.844Z,465.60
2023-04-10T23:15:28.193Z,471.40
2023-04-10T23:17:58.110Z,459.50
2023-04-10T23:20:26.488Z,480.45
2023-04-10T23:22:56.671Z,468.88
2023-04-10T23:25:25.268Z,487.33
2023-04-10T23:27:53.621Z,490.05
2023-04-10T23:30:22.065Z,505.38
2023-04-10T23:32:50.535Z,478.52
2023-04-10T23:35:20.472Z,495.15
2023-04-10T23:37:50.444Z,474.25
2023-04-10T23:40:19.251Z,464.08
2023-04-10T23:42:47.752Z,479.00
2023-04-10T23:45:16.224Z,443.70
2023-04-10T23:47:44.610Z,502.70
2023-04-10T23:50:13.107Z,478.25
2023-04-10T23:52:42.807Z,456.85
2023-04-10T23:55:11.523Z,508.40
2023-04-10T23:57:39.975Z,475.45
